Time;durP1;ratioP1;P1;durP2;ratioP2;P2;SDS_P1;SDS_P2;PMS_P1;PMS_P2;Temp;Humidity;BMP_temperature;BMP_pressure;BME280_temperature;BME280_humidity;BME280_pressure;Samples;Min_cycle;Max_cycle;Signal;HPM_P1;HPM_P2
2021/05/08 00:01:30;;;;;;;2.58;2.28;;;3.30;99.90;;;;;;466012;255;28043;-72
2021/05/08 00:03:31;;;;;;;6.18;2.33;;;3.30;99.90;;;;;;466006;255;27929;-72
2021/05/08 00:05:33;;;;;;;2.20;2.10;;;3.30;99.90;;;;;;466010;255;27904;-72
2021/05/08 00:07:34;;;;;;;2.17;2.05;;;3.20;99.90;;;;;;466016;255;27524;-72
2021/05/08 00:09:35;;;;;;;3.25;2.60;;;3.10;99.90;;;;;;466003;255;27490;-72
2021/05/08 00:11:36;;;;;;;2.53;2.33;;;3.10;99.90;;;;;;466013;255;27549;-73
2021/05/08 00:13:37;;;;;;;2.70;2.50;;;3.20;99.90;;;;;;466007;255;27444;-72
2021/05/08 00:15:39;;;;;;;2.75;2.50;;;3.10;99.90;;;;;;466019;255;27465;-72
2021/05/08 00:17:40;;;;;;;2.65;2.45;;;3.00;99.90;;;;;;466003;255;27536;-72
2021/05/08 00:19:41;;;;;;;2.42;2.22;;;3.00;99.90;;;;;;466010;255;27538;-71
2021/05/08 00:21:42;;;;;;;3.03;2.12;;;2.90;99.90;;;;;;466013;255;27554;-72
2021/05/08 00:23:44;;;;;;;2.50;2.30;;;2.80;99.90;;;;;;466035;255;27446;-72
2021/05/08 00:25:45;;;;;;;2.30;2.20;;;2.80;99.90;;;;;;466021;255;27985;-72
2021/05/08 00:27:46;;;;;;;2.80;2.45;;;2.70;99.90;;;;;;466011;255;27909;-73
2021/05/08 00:29:47;;;;;;;2.60;2.40;;;2.70;99.90;;;;;;466014;255;28032;-72
2021/05/08 00:31:49;;;;;;;2.85;2.65;;;2.70;99.90;;;;;;466031;255;27898;-72
2021/05/08 00:33:50;;;;;;;3.12;2.15;;;2.70;99.90;;;;;;466016;255;27567;-72
2021/05/08 00:35:51;;;;;;;3.03;2.75;;;2.80;99.90;;;;;;465993;255;27548;-72
2021/05/08 00:37:52;;;;;;;2.50;2.30;;;2.70;99.90;;;;;;466009;255;27449;-74
2021/05/08 00:39:54;;;;;;;2.85;2.60;;;2.70;99.90;;;;;;466015;255;27508;-72
2021/05/08 00:41:55;;;;;;;2.97;2.67;;;2.70;99.90;;;;;;466008;255;27465;-72
2021/05/08 00:43:56;;;;;;;3.60;2.72;;;2.70;99.90;;;;;;466006;255;27430;-72
2021/05/08 00:45:57;;;;;;;5.28;3.08;;;2.70;99.90;;;;;;466002;255;27528;-72
2021/05/08 00:47:59;;;;;;;3.03;2.40;;;2.70;99.90;;;;;;466026;255;27453;-73
2021/05/08 00:50:00;;;;;;;2.58;2.37;;;2.70;99.90;;;;;;466012;255;27567;-72
2021/05/08 00:52:01;;;;;;;3.30;3.00;;;2.70;99.90;;;;;;466001;255;28031;-72
2021/05/08 00:54:02;;;;;;;2.50;2.30;;;2.70;99.90;;;;;;466008;255;27925;-72
2021/05/08 00:56:04;;;;;;;3.03;2.70;;;2.70;99.90;;;;;;465996;255;28004;-72
2021/05/08 00:58:08;;;;;;;3.33;3.03;;;2.70;99.90;;;;;;466003;255;28023;-72
2021/05/08 01:00:06;;;;;;;2.60;2.40;;;2.60;99.90;;;;;;465923;254;27524;-72
2021/05/08 01:02:07;;;;;;;3.83;3.35;;;2.60;99.90;;;;;;466003;255;27457;-72
2021/05/08 01:04:09;;;;;;;2.70;2.50;;;2.50;99.90;;;;;;466006;255;27511;-72
2021/05/08 01:06:10;;;;;;;2.70;2.50;;;2.50;99.90;;;;;;466010;255;27460;-72
2021/05/08 01:08:11;;;;;;;2.80;2.30;;;2.50;99.90;;;;;;466012;255;27444;-72
2021/05/08 01:10:12;;;;;;;2.95;2.75;;;2.50;99.90;;;;;;466013;255;27551;-72
2021/05/08 01:12:14;;;;;;;3.22;2.50;;;2.50;99.90;;;;;;466005;255;27449;-72
2021/05/08 01:14:15;;;;;;;3.85;3.17;;;2.40;99.90;;;;;;466015;255;27527;-72
2021/05/08 01:16:16;;;;;;;3.00;2.65;;;2.30;99.90;;;;;;465988;255;27540;-72
2021/05/08 01:18:17;;;;;;;2.92;2.72;;;2.40;99.90;;;;;;466024;255;27468;-72
2021/05/08 01:20:19;;;;;;;2.50;2.40;;;2.40;99.90;;;;;;466013;255;27901;-72
2021/05/08 01:22:20;;;;;;;3.55;2.72;;;2.40;99.90;;;;;;466025;255;27933;-72
2021/05/08 01:24:21;;;;;;;2.47;2.30;;;2.40;99.90;;;;;;466020;255;27935;-72
2021/05/08 01:26:22;;;;;;;2.97;2.78;;;2.40;99.90;;;;;;466015;255;28035;-72
2021/05/08 01:28:26;;;;;;;3.25;2.95;;;2.50;99.90;;;;;;465991;255;27529;-72
2021/05/08 01:30:25;;;;;;;4.82;3.12;;;2.40;99.90;;;;;;465928;255;27449;-72
2021/05/08 01:32:26;;;;;;;3.12;2.70;;;2.30;99.90;;;;;;466017;255;27460;-72
2021/05/08 01:34:27;;;;;;;2.55;2.40;;;2.30;99.90;;;;;;466020;254;27445;-72
2021/05/08 01:36:31;;;;;;;3.75;2.70;;;2.30;99.90;;;;;;465993;255;27453;-72
2021/05/08 01:38:32;;;;;;;5.12;2.50;;;2.30;99.90;;;;;;465915;255;27893;-72
2021/05/08 01:40:31;;;;;;;3.00;2.80;;;2.30;99.90;;;;;;465916;255;27445;-71
2021/05/08 01:42:32;;;;;;;2.87;2.55;;;2.30;99.90;;;;;;466012;255;27513;-72
2021/05/08 01:44:34;;;;;;;3.08;2.70;;;2.30;99.90;;;;;;465990;255;27505;-72
2021/05/08 01:46:35;;;;;;;6.07;3.12;;;2.30;99.90;;;;;;466011;255;27992;-72
2021/05/08 01:48:36;;;;;;;3.35;3.05;;;2.30;99.90;;;;;;465999;255;27937;-72
2021/05/08 01:50:37;;;;;;;4.05;3.35;;;2.30;99.90;;;;;;466007;255;27908;-72
2021/05/08 01:52:39;;;;;;;3.15;2.85;;;2.20;99.90;;;;;;465996;255;27896;-72
2021/05/08 01:54:40;;;;;;;3.12;2.92;;;2.20;99.90;;;;;;465998;255;27461;-72
2021/05/08 01:56:41;;;;;;;3.05;2.70;;;2.10;99.90;;;;;;465976;255;27509;-72
2021/05/08 01:58:42;;;;;;;2.78;2.58;;;2.20;99.90;;;;;;465984;255;27440;-72
2021/05/08 02:00:44;;;;;;;3.17;2.75;;;2.20;99.90;;;;;;465999;255;27450;-72
2021/05/08 02:02:45;;;;;;;3.05;2.72;;;2.20;99.90;;;;;;466000;255;27536;-74
2021/05/08 02:04:47;;;;;;;3.72;2.60;;;2.20;99.90;;;;;;466015;255;27528;-72
2021/05/08 02:06:47;;;;;;;3.12;2.65;;;2.10;99.90;;;;;;465958;255;27587;-72
2021/05/08 02:08:49;;;;;;;2.85;2.65;;;2.00;99.90;;;;;;465990;255;27445;-72
2021/05/08 02:10:50;;;;;;;3.53;3.22;;;2.00;99.90;;;;;;466012;255;27468;-72
2021/05/08 02:12:51;;;;;;;4.68;3.20;;;1.90;99.90;;;;;;466005;255;27437;-72
2021/05/08 02:14:52;;;;;;;3.12;2.85;;;1.90;99.90;;;;;;465995;255;28021;-72
2021/05/08 02:16:54;;;;;;;3.25;3.05;;;1.90;99.90;;;;;;465998;255;27962;-72
2021/05/08 02:18:55;;;;;;;3.15;2.35;;;1.90;99.90;;;;;;466000;255;28990;-72
2021/05/08 02:20:56;;;;;;;3.03;2.83;;;1.90;99.90;;;;;;466010;255;27990;-72
2021/05/08 02:22:57;;;;;;;3.12;2.87;;;2.00;99.90;;;;;;465993;255;27521;-73
2021/05/08 02:24:59;;;;;;;2.95;2.70;;;2.00;99.90;;;;;;465994;255;27520;-72
2021/05/08 02:27:00;;;;;;;4.10;3.10;;;2.00;99.90;;;;;;466004;255;27533;-72
2021/05/08 02:29:01;;;;;;;4.07;2.70;;;2.00;99.90;;;;;;466032;255;27452;-72
2021/05/08 02:31:02;;;;;;;3.40;3.10;;;1.90;99.90;;;;;;466020;255;27459;-72
2021/05/08 02:33:04;;;;;;;2.92;2.72;;;1.80;99.90;;;;;;466034;255;27497;-72
2021/05/08 02:35:05;;;;;;;5.80;2.60;;;1.70;99.90;;;;;;466028;255;27509;-72
2021/05/08 02:37:06;;;;;;;3.62;2.70;;;1.70;99.90;;;;;;466014;255;27445;-73
2021/05/08 02:39:07;;;;;;;4.05;3.03;;;1.80;99.90;;;;;;466021;255;27525;-72
2021/05/08 02:41:09;;;;;;;2.95;2.58;;;1.80;99.90;;;;;;466018;255;27484;-72
2021/05/08 02:43:10;;;;;;;3.30;3.00;;;1.80;99.90;;;;;;466039;255;27989;-71
2021/05/08 02:45:11;;;;;;;3.10;2.90;;;1.80;99.90;;;;;;466031;255;27985;-72
2021/05/08 02:47:19;;;;;;;2.72;2.62;;;1.70;99.90;;;;;;466043;255;27911;-72
2021/05/08 02:49:20;;;;;;;9.70;2.87;;;1.70;99.90;;;;;;466204;254;27589;-72
2021/05/08 02:51:21;;;;;;;4.20;3.33;;;1.70;99.90;;;;;;466349;253;27580;-72
2021/05/08 02:53:22;;;;;;;3.70;3.40;;;1.80;99.90;;;;;;466317;255;27533;-72
2021/05/08 02:55:24;;;;;;;2.80;2.60;;;1.80;99.90;;;;;;466308;255;28075;-72
2021/05/08 02:57:25;;;;;;;3.28;3.08;;;1.80;99.90;;;;;;466296;255;27991;-73
2021/05/08 02:59:26;;;;;;;3.33;2.85;;;1.70;99.90;;;;;;466295;254;28003;-72
2021/05/08 03:01:27;;;;;;;2.92;2.72;;;1.70;99.90;;;;;;466310;255;27986;-72
2021/05/08 03:03:29;;;;;;;3.95;3.28;;;1.60;99.90;;;;;;466325;255;27526;-72
2021/05/08 03:05:30;;;;;;;2.75;2.60;;;1.60;99.90;;;;;;466321;255;27549;-72
2021/05/08 03:07:31;;;;;;;3.72;2.90;;;1.50;99.90;;;;;;466315;255;27534;-73
2021/05/08 03:09:32;;;;;;;3.25;3.05;;;1.50;99.90;;;;;;466298;255;27519;-72
2021/05/08 03:11:34;;;;;;;3.95;3.55;;;1.50;99.90;;;;;;466322;255;27525;-72
2021/05/08 03:13:35;;;;;;;2.75;2.65;;;1.50;99.90;;;;;;466313;255;27534;-72
2021/05/08 03:15:36;;;;;;;3.28;2.97;;;1.50;99.90;;;;;;466300;255;27592;-72
2021/05/08 03:17:37;;;;;;;3.42;2.90;;;1.60;99.90;;;;;;466326;255;27521;-71
2021/05/08 03:19:39;;;;;;;3.40;3.10;;;1.60;99.90;;;;;;466318;255;27504;-72
2021/05/08 03:21:40;;;;;;;3.75;3.35;;;1.60;99.90;;;;;;466318;255;27538;-72
2021/05/08 03:23:41;;;;;;;3.12;2.87;;;1.60;99.90;;;;;;466319;255;28035;-72
2021/05/08 03:25:42;;;;;;;3.03;2.78;;;1.60;99.90;;;;;;466324;255;28071;-72
2021/05/08 03:27:44;;;;;;;2.80;2.60;;;1.60;99.90;;;;;;466317;255;27967;-72
2021/05/08 03:29:46;;;;;;;9.10;3.83;;;1.60;99.90;;;;;;466311;255;28084;-72
2021/05/08 03:31:46;;;;;;;3.12;2.92;;;1.60;99.90;;;;;;466275;255;27547;-72
2021/05/08 03:33:47;;;;;;;3.17;2.97;;;1.60;99.90;;;;;;466315;255;27519;-72
2021/05/08 03:35:49;;;;;;;3.25;2.95;;;1.70;99.90;;;;;;466317;255;27596;-72
2021/05/08 03:37:50;;;;;;;6.30;3.50;;;1.70;99.90;;;;;;466311;255;27534;-72
2021/05/08 03:39:51;;;;;;;4.18;3.12;;;1.80;99.90;;;;;;466301;255;27510;-72
2021/05/08 03:41:52;;;;;;;3.60;3.30;;;1.80;99.90;;;;;;466319;255;27520;-72
2021/05/08 03:43:54;;;;;;;3.15;2.95;;;1.80;99.90;;;;;;466303;255;27524;-72
2021/05/08 03:45:55;;;;;;;3.45;3.00;;;1.80;99.90;;;;;;466312;255;27997;-72
2021/05/08 03:47:56;;;;;;;3.40;3.15;;;1.80;99.90;;;;;;466318;255;27535;-74
2021/05/08 03:49:57;;;;;;;3.67;3.37;;;1.90;99.90;;;;;;466313;255;27511;-72
2021/05/08 03:51:59;;;;;;;3.25;2.95;;;1.90;99.90;;;;;;466318;253;27998;-72
2021/05/08 03:54:00;;;;;;;3.65;3.35;;;2.00;99.90;;;;;;466299;255;27978;-72
2021/05/08 03:56:02;;;;;;;3.17;2.97;;;2.00;99.90;;;;;;466325;255;28170;-73
2021/05/08 03:58:02;;;;;;;4.00;3.60;;;2.10;99.90;;;;;;466284;255;28243;-75
2021/05/08 04:00:04;;;;;;;3.85;3.45;;;2.10;99.90;;;;;;466305;255;27627;-72
2021/05/08 04:02:05;;;;;;;3.50;3.20;;;2.10;99.90;;;;;;466325;255;27661;-72
2021/05/08 04:04:06;;;;;;;4.05;3.65;;;2.00;99.90;;;;;;466312;255;27609;-72
2021/05/08 04:06:07;;;;;;;3.83;3.05;;;1.90;99.90;;;;;;466317;255;27506;-72
2021/05/08 04:08:09;;;;;;;3.60;3.30;;;1.90;99.90;;;;;;466304;255;27895;-72
2021/05/08 04:10:10;;;;;;;3.50;3.20;;;1.90;99.90;;;;;;466321;255;27634;-72
2021/05/08 04:12:11;;;;;;;3.40;3.12;;;1.90;99.90;;;;;;466315;255;27526;-72
2021/05/08 04:14:12;;;;;;;3.17;2.97;;;1.90;99.90;;;;;;466307;255;27519;-72
2021/05/08 04:16:14;;;;;;;3.87;3.47;;;1.90;99.90;;;;;;466315;255;27531;-72
2021/05/08 04:18:15;;;;;;;3.40;3.10;;;1.90;99.90;;;;;;466292;255;27534;-72
2021/05/08 04:20:16;;;;;;;3.80;3.37;;;1.90;99.90;;;;;;466305;255;28061;-72
2021/05/08 04:22:17;;;;;;;3.70;3.40;;;1.80;99.90;;;;;;466312;255;27983;-72
2021/05/08 04:24:19;;;;;;;3.42;3.12;;;1.80;99.90;;;;;;466308;255;28059;-72
2021/05/08 04:26:20;;;;;;;3.20;2.95;;;1.80;99.90;;;;;;466309;255;28020;-72
2021/05/08 04:28:21;;;;;;;3.17;2.95;;;1.90;99.90;;;;;;466320;255;27499;-72
2021/05/08 04:30:22;;;;;;;4.35;3.53;;;2.00;99.90;;;;;;466303;255;27622;-72
2021/05/08 04:32:24;;;;;;;2.83;2.60;;;2.00;99.90;;;;;;466323;255;27531;-73
2021/05/08 04:34:25;;;;;;;3.53;3.10;;;2.00;99.90;;;;;;466308;255;27607;-72
2021/05/08 04:36:26;;;;;;;3.08;2.87;;;2.10;99.90;;;;;;466315;255;27515;-72
2021/05/08 04:38:27;;;;;;;3.05;2.85;;;2.10;99.90;;;;;;466310;255;27524;-72
2021/05/08 04:40:29;;;;;;;3.67;3.37;;;2.20;99.90;;;;;;466300;255;27528;-72
2021/05/08 04:42:30;;;;;;;5.05;3.15;;;2.20;99.90;;;;;;466307;255;27539;-74
2021/05/08 04:44:31;;;;;;;3.60;3.00;;;2.20;99.90;;;;;;466303;255;27640;-71
2021/05/08 04:46:32;;;;;;;4.10;3.28;;;2.20;99.90;;;;;;466313;255;27532;-72
2021/05/08 04:48:34;;;;;;;3.00;2.80;;;2.20;99.90;;;;;;466294;255;27951;-71
2021/05/08 04:50:35;;;;;;;3.53;3.17;;;2.30;99.90;;;;;;466294;255;27999;-72
2021/05/08 04:52:36;;;;;;;3.35;3.05;;;2.30;99.90;;;;;;466310;255;28034;-73
2021/05/08 04:54:37;;;;;;;3.33;3.03;;;2.30;99.90;;;;;;466308;255;29157;-72
2021/05/08 04:56:39;;;;;;;4.22;3.80;;;2.40;99.90;;;;;;466307;255;27611;-72
2021/05/08 04:58:40;;;;;;;3.40;3.10;;;2.30;99.90;;;;;;466305;255;27646;-72
2021/05/08 05:00:41;;;;;;;4.30;3.00;;;2.30;99.90;;;;;;466293;255;27538;-72
2021/05/08 05:02:42;;;;;;;3.67;3.37;;;2.50;99.90;;;;;;466292;255;27642;-74
2021/05/08 05:04:44;;;;;;;3.50;3.15;;;2.50;99.90;;;;;;466300;255;27526;-71
2021/05/08 05:06:45;;;;;;;3.05;2.85;;;2.50;99.90;;;;;;466297;255;27642;-72
2021/05/08 05:08:46;;;;;;;7.22;3.10;;;2.60;99.90;;;;;;466343;255;27515;-72
2021/05/08 05:10:47;;;;;;;2.70;2.60;;;2.70;99.90;;;;;;466303;255;27531;-72
2021/05/08 05:12:49;;;;;;;3.30;3.00;;;2.80;99.90;;;;;;466291;255;27533;-72
2021/05/08 05:14:50;;;;;;;4.50;2.70;;;2.80;99.90;;;;;;458623;257;27463;-72
2021/05/08 05:16:51;;;;;;;4.75;3.17;;;2.90;99.90;;;;;;466307;255;27979;-72
2021/05/08 05:18:52;;;;;;;3.33;2.90;;;3.00;99.90;;;;;;466286;255;28060;-72
2021/05/08 05:20:54;;;;;;;3.12;2.87;;;3.10;99.90;;;;;;466286;255;28124;-72
2021/05/08 05:22:55;;;;;;;3.10;2.85;;;3.10;99.90;;;;;;458616;259;27441;-72
2021/05/08 05:24:56;;;;;;;3.50;2.90;;;3.20;99.90;;;;;;466311;255;27642;-72
2021/05/08 05:26:57;;;;;;;3.00;2.80;;;3.20;99.90;;;;;;466293;255;27524;-72
2021/05/08 05:28:59;;;;;;;3.03;2.83;;;3.20;99.90;;;;;;466305;255;27519;-72
2021/05/08 05:31:00;;;;;;;2.90;2.70;;;3.20;99.90;;;;;;466289;255;27547;-72
2021/05/08 05:33:01;;;;;;;6.03;3.00;;;3.30;99.90;;;;;;466317;255;27535;-72
2021/05/08 05:35:02;;;;;;;4.25;2.95;;;3.30;99.90;;;;;;466287;255;27518;-72
2021/05/08 05:37:04;;;;;;;3.12;2.83;;;3.40;99.90;;;;;;466312;255;27540;-72
2021/05/08 05:39:05;;;;;;;2.83;2.62;;;3.50;99.90;;;;;;458621;259;27441;-72
2021/05/08 05:41:06;;;;;;;2.95;2.67;;;3.50;99.90;;;;;;466297;255;27521;-72
2021/05/08 05:43:07;;;;;;;3.00;2.80;;;3.60;99.90;;;;;;466295;255;27974;-72
2021/05/08 05:45:09;;;;;;;3.40;2.70;;;3.80;99.90;;;;;;466292;255;27970;-72
2021/05/08 05:47:20;;;;;;;2.95;2.75;;;3.90;99.90;;;;;;458636;259;28056;-72
2021/05/08 05:49:11;;;;;;;3.33;3.03;;;4.00;99.90;;;;;;466326;255;27542;-72
2021/05/08 05:51:12;;;;;;;7.15;3.53;;;4.10;99.90;;;;;;466303;255;27618;-72
2021/05/08 05:53:14;;;;;;;4.20;3.00;;;4.20;99.90;;;;;;466299;253;27537;-72
2021/05/08 05:55:15;;;;;;;4.40;3.00;;;4.30;99.90;;;;;;466305;255;27517;-72
2021/05/08 05:57:16;;;;;;;3.50;3.20;;;4.40;99.90;;;;;;466313;255;27530;-72
2021/05/08 05:59:17;;;;;;;3.20;2.78;;;4.40;99.90;;;;;;466291;255;27586;-72
2021/05/08 06:01:19;;;;;;;3.53;3.22;;;4.50;99.90;;;;;;466330;255;27522;-72
2021/05/08 06:03:20;;;;;;;5.45;3.70;;;4.60;99.90;;;;;;466310;255;28104;-72
2021/05/08 06:05:21;;;;;;;4.60;3.70;;;4.80;99.90;;;;;;466289;255;27978;-72
2021/05/08 06:07:22;;;;;;;3.70;3.28;;;4.90;99.90;;;;;;466319;255;27975;-72
2021/05/08 06:09:25;;;;;;;4.32;3.62;;;5.10;99.90;;;;;;466315;255;27595;-72
2021/05/08 06:11:25;;;;;;;5.45;4.28;;;5.30;99.90;;;;;;466233;255;27535;-73
2021/05/08 06:13:31;;;;;;;5.45;3.75;;;5.40;99.90;;;;;;466312;255;27506;-72
2021/05/08 06:15:27;;;;;;;5.15;3.28;;;5.60;99.90;;;;;;466033;255;27530;-72
2021/05/08 06:17:29;;;;;;;5.12;3.53;;;6.00;99.90;;;;;;466317;255;27535;-73
2021/05/08 06:19:30;;;;;;;4.30;3.90;;;6.20;99.90;;;;;;466296;255;27533;-72
2021/05/08 06:21:31;;;;;;;5.75;3.72;;;6.30;99.90;;;;;;466314;255;28054;-73
2021/05/08 06:23:32;;;;;;;3.12;2.83;;;6.40;99.90;;;;;;466322;255;28048;-73
2021/05/08 06:25:34;;;;;;;4.80;3.55;;;6.70;99.90;;;;;;466310;255;28015;-72
2021/05/08 06:27:35;;;;;;;4.10;3.40;;;6.90;99.90;;;;;;466326;255;27590;-74
2021/05/08 06:29:37;;;;;;;4.23;3.40;;;7.10;99.90;;;;;;466315;255;28587;-72
2021/05/08 06:31:37;;;;;;;4.50;3.30;;;7.20;99.90;;;;;;466312;255;28898;-73
2021/05/08 06:33:39;;;;;;;3.10;2.80;;;7.40;99.90;;;;;;466318;255;28081;-72
2021/05/08 06:35:40;;;;;;;4.60;3.47;;;7.60;99.90;;;;;;466302;255;28532;-73
2021/05/08 06:37:41;;;;;;;4.93;3.27;;;7.70;99.90;;;;;;466309;255;27865;-74
2021/05/08 06:39:42;;;;;;;3.33;3.03;;;8.00;99.90;;;;;;466291;255;28056;-72
2021/05/08 06:41:44;;;;;;;3.70;2.80;;;8.10;99.90;;;;;;466312;255;27880;-73
2021/05/08 06:43:45;;;;;;;3.50;3.10;;;8.20;99.90;;;;;;458620;259;28530;-72
2021/05/08 06:45:46;;;;;;;3.40;2.90;;;8.30;99.90;;;;;;466302;255;28467;-73
2021/05/08 06:47:49;;;;;;;4.73;2.90;;;8.70;99.90;;;;;;466311;255;28524;-74
2021/05/08 06:49:49;;;;;;;3.17;2.87;;;8.70;99.90;;;;;;466211;255;28345;-72
2021/05/08 06:51:50;;;;;;;4.53;3.00;;;8.70;99.90;;;;;;466325;255;28238;-73
2021/05/08 06:53:51;;;;;;;5.20;2.67;;;8.80;99.90;;;;;;466316;255;28001;-72
2021/05/08 06:55:52;;;;;;;2.60;2.40;;;8.90;99.90;;;;;;466316;255;28000;-72
2021/05/08 06:57:54;;;;;;;3.93;2.90;;;9.00;99.90;;;;;;466313;255;28106;-72
2021/05/08 06:59:55;;;;;;;3.20;2.90;;;9.10;99.90;;;;;;466304;255;27837;-70
2021/05/08 07:01:56;;;;;;;6.77;3.03;;;9.10;99.90;;;;;;466316;255;27646;-74
2021/05/08 07:03:58;;;;;;;3.10;2.80;;;9.20;99.90;;;;;;466316;254;28151;-73
2021/05/08 07:05:59;;;;;;;4.97;3.03;;;9.30;99.90;;;;;;466309;255;27522;-73
2021/05/08 07:08:00;;;;;;;3.30;2.80;;;9.20;99.90;;;;;;466315;255;28087;-71
2021/05/08 07:10:03;;;;;;;3.30;2.90;;;9.20;99.90;;;;;;466317;255;28112;-72
2021/05/08 07:12:02;;;;;;;6.10;2.83;;;9.20;99.90;;;;;;466239;255;28014;-72
2021/05/08 07:14:04;;;;;;;5.60;2.70;;;9.30;99.90;;;;;;466321;255;28003;-72
2021/05/08 07:16:05;;;;;;;6.80;2.60;;;9.30;99.90;;;;;;466327;255;27959;-72
2021/05/08 07:18:06;;;;;;;3.03;2.40;;;9.30;99.90;;;;;;466364;255;28092;-72
2021/05/08 07:20:07;;;;;;;3.37;2.57;;;9.30;99.90;;;;;;466310;255;27522;-72
2021/05/08 07:22:09;;;;;;;3.07;2.50;;;9.50;99.90;;;;;;466324;255;28687;-74
2021/05/08 07:24:10;;;;;;;4.70;2.70;;;9.60;99.90;;;;;;466329;255;28459;-72
2021/05/08 07:26:11;;;;;;;4.03;2.77;;;9.70;99.90;;;;;;466337;255;28349;-72
2021/05/08 07:28:12;;;;;;;2.40;2.20;;;9.70;99.90;;;;;;466322;255;28475;-72
2021/05/08 07:30:14;;;;;;;4.37;2.70;;;9.80;99.90;;;;;;466325;255;28192;-72
2021/05/08 07:32:15;;;;;;;4.00;2.67;;;9.90;99.90;;;;;;466320;255;28105;-74
2021/05/08 07:34:16;;;;;;;3.93;2.30;;;9.90;99.90;;;;;;466320;255;28201;-72
2021/05/08 07:36:17;;;;;;;2.40;2.20;;;10.00;99.90;;;;;;466324;255;27897;-72
2021/05/08 07:38:19;;;;;;;2.53;2.33;;;10.10;99.90;;;;;;466327;253;27868;-72
2021/05/08 07:40:20;;;;;;;2.80;2.20;;;10.10;99.90;;;;;;466312;255;28119;-72
2021/05/08 07:42:21;;;;;;;4.23;2.67;;;10.20;99.90;;;;;;466327;255;28078;-72
2021/05/08 07:44:22;;;;;;;2.70;2.50;;;10.20;99.90;;;;;;466329;255;28102;-72
2021/05/08 07:46:24;;;;;;;3.33;2.77;;;10.30;99.90;;;;;;466313;255;28005;-73
2021/05/08 07:48:25;;;;;;;3.33;2.50;;;10.30;99.90;;;;;;466315;255;28323;-72
2021/05/08 07:50:26;;;;;;;4.50;2.43;;;10.40;99.90;;;;;;466314;255;28922;-73
2021/05/08 07:52:27;;;;;;;2.23;1.97;;;10.60;99.90;;;;;;466304;255;28667;-73
2021/05/08 07:54:29;;;;;;;3.17;2.27;;;10.80;99.90;;;;;;466477;255;28596;-73
2021/05/08 07:56:32;;;;;;;4.03;2.30;;;11.10;99.90;;;;;;476402;249;28352;-73
2021/05/08 07:58:31;;;;;;;2.50;2.20;;;11.20;99.90;;;;;;476253;249;29317;-72
2021/05/08 08:00:32;;;;;;;3.47;1.93;;;11.30;99.90;;;;;;476368;250;28298;-73
2021/05/08 08:02:34;;;;;;;2.83;2.13;;;11.30;99.90;;;;;;476386;250;28175;-75
2021/05/08 08:04:35;;;;;;;3.07;2.27;;;11.30;99.90;;;;;;476399;250;28071;-73
2021/05/08 08:06:36;;;;;;;2.33;1.70;;;11.30;99.90;;;;;;476406;250;28557;-73
2021/05/08 08:08:38;;;;;;;2.87;2.57;;;11.40;99.90;;;;;;476414;250;28436;-74
2021/05/08 08:10:39;;;;;;;2.40;2.17;;;11.50;99.90;;;;;;476343;250;28852;-72
2021/05/08 08:12:40;;;;;;;2.63;1.90;;;11.60;99.90;;;;;;476382;250;28194;-74
2021/05/08 08:14:41;;;;;;;2.40;1.67;;;11.80;99.90;;;;;;476389;250;28742;-72
2021/05/08 08:16:42;;;;;;;2.17;1.90;;;11.80;99.90;;;;;;476397;250;28783;-73
2021/05/08 08:18:44;;;;;;;2.10;1.87;;;11.90;99.90;;;;;;476389;250;28764;-72
2021/05/08 08:20:45;;;;;;;2.90;2.03;;;11.90;99.90;;;;;;476385;250;28387;-73
2021/05/08 08:22:46;;;;;;;2.33;1.70;;;11.90;99.90;;;;;;476395;250;28366;-74
2021/05/08 08:24:47;;;;;;;3.83;2.50;;;11.90;99.90;;;;;;476392;250;28203;-72
2021/05/08 08:26:49;;;;;;;4.93;2.07;;;11.90;99.90;;;;;;476384;250;28634;-72
2021/05/08 08:28:50;;;;;;;1.97;1.83;;;11.80;99.90;;;;;;476392;250;28292;-73
2021/05/08 08:30:51;;;;;;;1.70;1.60;;;11.70;99.90;;;;;;476419;250;28224;-72
2021/05/08 08:32:52;;;;;;;2.93;2.17;;;11.70;99.90;;;;;;476391;250;28282;-72
2021/05/08 08:34:54;;;;;;;2.27;1.80;;;11.80;99.90;;;;;;476392;249;28071;-73
2021/05/08 08:36:55;;;;;;;4.20;2.70;;;11.80;99.90;;;;;;476389;250;28302;-73
2021/05/08 08:38:56;;;;;;;2.23;2.03;;;11.90;99.90;;;;;;476402;250;28884;-72
2021/05/08 08:40:57;;;;;;;3.17;2.20;;;12.00;99.90;;;;;;476380;250;28666;-73
2021/05/08 08:42:59;;;;;;;2.40;1.80;;;12.10;99.90;;;;;;476387;250;28898;-74
2021/05/08 08:45:00;;;;;;;1.73;1.63;;;12.00;99.90;;;;;;476394;250;28304;-73
2021/05/08 08:47:01;;;;;;;2.00;1.87;;;12.20;99.90;;;;;;476377;250;28446;-73
2021/05/08 08:49:02;;;;;;;2.23;1.90;;;12.20;99.90;;;;;;476385;250;28294;-72
2021/05/08 08:51:04;;;;;;;2.27;2.07;;;12.30;99.90;;;;;;476379;250;28424;-73
2021/05/08 08:53:05;;;;;;;2.10;1.60;;;12.30;99.90;;;;;;476382;250;28325;-73
2021/05/08 08:55:09;;;;;;;1.60;1.50;;;12.30;99.90;;;;;;476378;250;28436;-73
2021/05/08 08:57:09;;;;;;;2.80;1.60;;;12.40;99.90;;;;;;476062;249;28443;-73
2021/05/08 08:59:18;;;;;;;2.50;1.90;;;12.40;99.90;;;;;;476350;250;28529;-71
2021/05/08 09:01:16;;;;;;;2.20;2.00;;;12.60;99.90;;;;;;476142;249;28869;-73
2021/05/08 09:03:17;;;;;;;1.80;1.70;;;12.50;99.90;;;;;;476398;250;28374;-72
2021/05/08 09:05:18;;;;;;;2.43;1.70;;;12.50;99.90;;;;;;476373;249;29412;-71
2021/05/08 09:07:19;;;;;;;2.20;1.80;;;12.60;99.90;;;;;;476386;250;29315;-73
2021/05/08 09:09:22;;;;;;;1.63;1.53;;;12.70;99.90;;;;;;476395;250;29311;-72
2021/05/08 09:11:23;;;;;;;2.67;1.73;;;12.70;99.90;;;;;;476332;249;29007;-72
2021/05/08 09:13:23;;;;;;;2.00;1.73;;;12.80;99.90;;;;;;476351;250;28857;-72
2021/05/08 09:15:24;;;;;;;2.30;1.80;;;12.90;99.90;;;;;;476395;250;28986;-72
2021/05/08 09:17:26;;;;;;;2.10;1.90;;;12.90;99.90;;;;;;476382;250;28852;-74
2021/05/08 09:19:27;;;;;;;3.33;1.90;;;12.90;99.90;;;;;;476384;250;28850;-72
2021/05/08 09:21:29;;;;;;;3.73;2.30;;;12.80;99.90;;;;;;476368;250;28638;-72
2021/05/08 09:23:29;;;;;;;1.90;1.80;;;12.90;99.90;;;;;;476361;250;28834;-72
2021/05/08 09:25:31;;;;;;;1.90;1.80;;;12.80;99.90;;;;;;476385;250;28959;-72
2021/05/08 09:27:32;;;;;;;2.47;2.27;;;12.80;99.90;;;;;;476389;250;28689;-72
2021/05/08 09:29:34;;;;;;;2.50;2.30;;;12.80;99.90;;;;;;476387;248;29274;-72
2021/05/08 09:31:34;;;;;;;2.70;2.07;;;12.90;99.90;;;;;;476332;250;29305;-72
2021/05/08 09:33:36;;;;;;;2.40;2.20;;;13.00;99.90;;;;;;476407;250;29269;-72
2021/05/08 09:35:37;;;;;;;1.70;1.60;;;13.10;99.90;;;;;;476387;250;29008;-72
2021/05/08 09:37:38;;;;;;;2.83;1.87;;;13.20;99.90;;;;;;476374;250;28836;-72
2021/05/08 09:39:39;;;;;;;1.90;1.70;;;13.20;99.90;;;;;;476376;250;28870;-71
2021/05/08 09:41:41;;;;;;;2.80;1.80;;;13.30;99.90;;;;;;476367;250;28974;-72
2021/05/08 09:43:42;;;;;;;5.17;2.20;;;13.40;99.90;;;;;;476393;250;28869;-71
2021/05/08 09:45:44;;;;;;;2.90;1.93;;;13.40;99.90;;;;;;476390;250;28852;-72
2021/05/08 09:47:45;;;;;;;1.90;1.80;;;13.40;99.90;;;;;;476354;250;28993;-73
2021/05/08 09:49:46;;;;;;;2.67;2.00;;;13.30;99.90;;;;;;476386;250;28450;-72
2021/05/08 09:51:47;;;;;;;2.67;1.73;;;13.40;99.90;;;;;;476378;250;28936;-72
2021/05/08 09:53:48;;;;;;;3.07;2.03;;;13.50;99.90;;;;;;476400;250;29084;-71
2021/05/08 09:55:50;;;;;;;3.93;2.30;;;13.40;99.90;;;;;;476373;249;29020;-71
2021/05/08 09:57:51;;;;;;;1.63;1.53;;;13.40;99.90;;;;;;476387;250;29361;-72
2021/05/08 09:59:54;;;;;;;2.73;1.90;;;13.60;99.90;;;;;;476367;250;29400;-72
2021/05/08 10:01:53;;;;;;;2.13;1.90;;;14.00;99.90;;;;;;476270;250;28858;-71
2021/05/08 10:03:55;;;;;;;2.23;2.03;;;14.00;99.90;;;;;;476374;250;28938;-72
2021/05/08 10:05:56;;;;;;;3.63;2.00;;;14.00;99.90;;;;;;476378;249;28858;-72
2021/05/08 10:07:57;;;;;;;2.67;1.90;;;14.10;99.90;;;;;;476377;250;28962;-72
2021/05/08 10:09:59;;;;;;;1.93;1.70;;;14.00;99.90;;;;;;476382;250;28923;-71
2021/05/08 10:12:00;;;;;;;3.00;1.77;;;13.80;99.70;;;;;;476397;250;28875;-72
2021/05/08 10:14:01;;;;;;;2.90;2.10;;;13.80;99.90;;;;;;476379;250;28854;-72
2021/05/08 10:16:02;;;;;;;2.20;2.00;;;13.80;99.60;;;;;;476373;250;28848;-72
2021/05/08 10:18:04;;;;;;;2.00;1.70;;;14.00;99.90;;;;;;476391;250;29829;-72
2021/05/08 10:20:05;;;;;;;2.40;1.80;;;14.30;99.90;;;;;;476378;250;29396;-72
2021/05/08 10:22:06;;;;;;;3.27;2.27;;;14.40;99.60;;;;;;476380;250;29405;-73
2021/05/08 10:24:07;;;;;;;1.90;1.70;;;14.60;99.90;;;;;;476382;250;28954;-72
2021/05/08 10:26:08;;;;;;;1.93;1.83;;;14.90;98.80;;;;;;476380;250;28905;-72
2021/05/08 10:28:10;;;;;;;1.97;1.60;;;15.00;98.10;;;;;;476382;250;28941;-71
2021/05/08 10:30:11;;;;;;;2.77;1.53;;;15.00;97.40;;;;;;476378;250;28844;-72
2021/05/08 10:32:12;;;;;;;2.23;1.70;;;14.90;96.90;;;;;;476379;250;28841;-73
2021/05/08 10:34:13;;;;;;;3.00;1.73;;;15.00;97.50;;;;;;476389;250;28927;-72
2021/05/08 10:36:15;;;;;;;2.33;1.73;;;15.00;96.30;;;;;;476383;250;28855;-72